Time;durP1;ratioP1;P1;durP2;ratioP2;P2;SDS_P1;SDS_P2;PMS_P1;PMS_P2;Temp;Humidity;BMP_temperature;BMP_pressure;BME280_temperature;BME280_humidity;BME280_pressure;Samples;Min_cycle;Max_cycle;Signal;HPM_P1;HPM_P2
2022/01/28 00:01:06;;;;;;;17.60;15.95;;;3.60;99.90;;;;;;5095383;28;20038;-78
2022/01/28 00:03:37;;;;;;;17.30;15.50;;;3.60;99.90;;;;;;5094365;28;20020;-78
2022/01/28 00:06:05;;;;;;;17.95;15.07;;;3.50;99.90;;;;;;5095209;28;20385;-78
2022/01/28 00:08:32;;;;;;;18.70;15.52;;;3.40;99.90;;;;;;5094383;28;20384;-78
2022/01/28 00:10:58;;;;;;;18.20;16.30;;;3.40;99.90;;;;;;5094786;28;20035;-79
2022/01/28 00:40:26;;;;;;;18.65;16.52;;;2.30;99.90;;;;;;5094212;28;20032;-78
2022/01/28 00:42:52;;;;;;;16.77;15.20;;;2.20;99.90;;;;;;5094126;28;20044;-78
2022/01/28 00:45:19;;;;;;;17.63;15.85;;;2.10;99.90;;;;;;5094124;28;20741;-78
2022/01/28 00:47:47;;;;;;;19.38;17.38;;;2.10;99.90;;;;;;5093450;28;20043;-77
2022/01/28 00:50:14;;;;;;;20.33;16.38;;;2.00;99.90;;;;;;5075996;28;20469;-77
2022/01/28 00:52:40;;;;;;;19.73;17.40;;;2.00;99.90;;;;;;5093648;28;20037;-78
2022/01/28 00:55:07;;;;;;;20.25;18.17;;;2.00;99.90;;;;;;5093773;28;20039;-77
2022/01/28 00:57:34;;;;;;;19.38;17.52;;;1.90;99.90;;;;;;5093486;28;20048;-78
2022/01/28 01:00:00;;;;;;;18.60;16.75;;;1.90;99.90;;;;;;5093226;28;20047;-78
2022/01/28 01:02:26;;;;;;;22.95;18.63;;;1.80;99.90;;;;;;5093786;28;20039;-78
2022/01/28 01:04:52;;;;;;;21.52;19.63;;;1.80;99.90;;;;;;5075224;28;20385;-78
2022/01/28 01:07:18;;;;;;;22.55;20.13;;;1.80;99.90;;;;;;5094447;28;20028;-78
2022/01/28 01:09:45;;;;;;;20.30;18.23;;;1.80;99.90;;;;;;5093153;28;20028;-78
2022/01/28 01:12:12;;;;;;;22.40;19.08;;;1.70;99.90;;;;;;5093375;28;20493;-78
2022/01/28 01:14:39;;;;;;;19.20;17.40;;;1.70;99.90;;;;;;5092789;28;20028;-78
2022/01/28 01:19:46;;;;;;;23.38;20.55;;;1.70;99.90;;;;;;5092481;28;20028;-78
2022/01/28 01:22:12;;;;;;;21.75;19.45;;;1.70;99.90;;;;;;5075425;28;20040;-78
2022/01/28 01:24:48;;;;;;;25.35;20.45;;;1.70;99.90;;;;;;5092807;28;20039;-78
2022/01/28 01:27:17;;;;;;;22.67;20.65;;;1.70;99.90;;;;;;5092534;28;20040;-78
2022/01/28 01:29:45;;;;;;;23.92;21.48;;;1.70;99.90;;;;;;5074513;28;20385;-78
2022/01/28 01:32:16;;;;;;;25.58;21.67;;;1.80;99.90;;;;;;5075042;28;20040;-79
2022/01/28 01:34:43;;;;;;;32.15;21.05;;;1.80;99.90;;;;;;5074905;28;20035;-78
2022/01/28 01:37:10;;;;;;;23.60;21.30;;;1.90;99.90;;;;;;5093000;28;20051;-78
2022/01/28 01:39:38;;;;;;;26.52;23.65;;;1.90;99.90;;;;;;5092743;28;20028;-78
2022/01/28 01:42:13;;;;;;;26.17;22.98;;;1.90;99.90;;;;;;5075210;28;20044;-78
2022/01/28 01:52:56;;;;;;;93.53;80.03;;;2.30;99.90;;;;;;5093268;28;20055;-78
2022/01/28 01:55:23;;;;;;;59.83;41.45;;;2.40;99.90;;;;;;5074961;28;20426;-78
2022/01/28 01:57:49;;;;;;;64.70;54.47;;;2.50;99.90;;;;;;5093360;28;20043;-78
2022/01/28 02:00:17;;;;;;;41.28;34.85;;;2.50;99.90;;;;;;5092751;28;20036;-79
2022/01/28 02:02:49;;;;;;;24.77;22.38;;;2.50;99.90;;;;;;5092206;28;20503;-78
2022/01/28 02:05:15;;;;;;;26.13;23.00;;;2.60;99.90;;;;;;5074646;28;20389;-78
2022/01/28 02:07:45;;;;;;;29.55;23.70;;;2.70;99.90;;;;;;5092210;28;20032;-78
2022/01/28 02:10:13;;;;;;;36.22;31.92;;;2.80;99.90;;;;;;5092794;28;20055;-79
2022/01/28 02:12:48;;;;;;;33.65;28.25;;;3.00;99.90;;;;;;5092702;28;20043;-77
2022/01/28 02:15:15;;;;;;;29.90;26.77;;;3.30;99.90;;;;;;5095846;28;20055;-78
2022/01/28 02:17:42;;;;;;;40.38;30.20;;;3.30;99.90;;;;;;5093871;28;20054;-77
2022/01/28 02:20:17;;;;;;;21.67;19.63;;;3.30;99.90;;;;;;5092588;28;20043;-78
2022/01/28 02:22:45;;;;;;;16.38;14.73;;;3.50;99.90;;;;;;5092024;28;20506;-78
2022/01/28 02:25:28;;;;;;;18.73;13.98;;;3.70;99.90;;;;;;5092750;28;20031;-78
2022/01/28 02:27:57;;;;;;;15.93;14.43;;;3.80;99.90;;;;;;5073731;28;20032;-78
2022/01/28 02:30:24;;;;;;;18.35;15.32;;;3.80;99.90;;;;;;5092615;28;20023;-78
2022/01/28 02:32:51;;;;;;;15.80;11.07;;;3.80;99.90;;;;;;5091738;28;20039;-78
2022/01/28 02:35:17;;;;;;;19.77;17.27;;;4.00;99.90;;;;;;5092190;28;20032;-78
2022/01/28 02:37:43;;;;;;;12.85;11.45;;;4.10;99.90;;;;;;5091873;28;20027;-78
2022/01/28 02:40:10;;;;;;;13.75;12.45;;;4.00;99.90;;;;;;5096497;28;20032;-76
2022/01/28 02:42:56;;;;;;;13.55;12.18;;;4.00;99.90;;;;;;5095563;28;20035;-78
2022/01/28 02:45:41;;;;;;;14.35;13.05;;;4.10;99.90;;;;;;5078165;28;20035;-77
2022/01/28 02:48:15;;;;;;;14.77;12.35;;;4.10;99.90;;;;;;5098425;28;20031;-77
2022/01/28 02:51:00;;;;;;;13.55;12.02;;;4.20;99.90;;;;;;5095356;28;20055;-77
2022/01/28 02:53:30;;;;;;;13.88;12.68;;;4.20;99.90;;;;;;5096055;28;20028;-77
2022/01/28 02:56:02;;;;;;;13.88;11.20;;;4.10;99.90;;;;;;5077419;28;20032;-76
2022/01/28 02:58:28;;;;;;;13.80;11.57;;;4.10;99.90;;;;;;5096042;28;20413;-77
2022/01/28 03:00:57;;;;;;;13.50;12.13;;;4.10;99.90;;;;;;5077229;28;20032;-77
2022/01/28 03:03:23;;;;;;;13.23;11.98;;;4.00;99.90;;;;;;5095956;28;20461;-77
2022/01/28 03:05:51;;;;;;;13.38;12.15;;;3.90;99.90;;;;;;5095074;28;20036;-76
2022/01/28 03:08:19;;;;;;;15.10;13.50;;;3.80;99.90;;;;;;5095949;28;20036;-76
2022/01/28 03:11:12;;;;;;;13.35;12.13;;;3.80;99.90;;;;;;5076577;28;20036;-76
2022/01/28 03:13:57;;;;;;;17.30;13.98;;;3.70;99.90;;;;;;5094956;28;20040;-76
2022/01/28 03:16:21;;;;;;;15.20;12.98;;;3.70;99.90;;;;;;5095251;28;20043;-77
2022/01/28 03:18:52;;;;;;;14.00;12.57;;;3.70;99.90;;;;;;5094582;28;20035;-76
2022/01/28 03:23:49;;;;;;;15.52;13.90;;;3.90;99.90;;;;;;5095007;28;20028;-76
2022/01/28 03:26:16;;;;;;;14.02;12.55;;;3.90;99.90;;;;;;5095379;28;20043;-77
2022/01/28 03:28:42;;;;;;;13.50;12.23;;;3.90;99.90;;;;;;5076618;28;20036;-77
2022/01/28 03:31:09;;;;;;;13.88;12.48;;;3.80;99.90;;;;;;5095443;28;20035;-77
2022/01/28 03:33:35;;;;;;;15.23;12.25;;;3.80;99.90;;;;;;5095271;28;20453;-76
2022/01/28 03:36:08;;;;;;;14.95;12.82;;;3.80;99.90;;;;;;5094827;28;20043;-77
2022/01/28 03:38:36;;;;;;;15.55;13.23;;;3.80;99.90;;;;;;5095589;28;20036;-76
2022/01/28 03:41:02;;;;;;;15.43;12.98;;;3.80;99.90;;;;;;5099256;28;20024;-77
2022/01/28 03:43:28;;;;;;;16.48;14.45;;;3.80;99.90;;;;;;5095889;28;20039;-77
2022/01/28 03:45:54;;;;;;;19.05;12.75;;;3.90;99.90;;;;;;5098359;28;20035;-78
2022/01/28 03:48:20;;;;;;;18.08;14.55;;;4.10;99.90;;;;;;5096516;28;20028;-77
2022/01/28 03:50:47;;;;;;;17.42;12.85;;;4.10;99.90;;;;;;5060997;28;20048;-78
2022/01/28 03:53:13;;;;;;;13.93;12.05;;;4.10;99.90;;;;;;5096337;28;20389;-78
2022/01/28 03:55:39;;;;;;;12.82;11.57;;;4.10;99.90;;;;;;5095532;28;20110;-79
2022/01/28 03:58:05;;;;;;;19.13;13.48;;;4.10;99.90;;;;;;5096316;28;20401;-78
2022/01/28 04:00:32;;;;;;;17.15;13.55;;;4.10;99.90;;;;;;5095257;28;20024;-78
2022/01/28 04:03:37;;;;;;;15.15;13.32;;;4.10;99.90;;;;;;5094125;28;20403;-78
2022/01/28 04:11:29;;;;;;;14.30;12.77;;;4.10;99.90;;;;;;5094528;28;20028;-77
2022/01/28 04:14:08;;;;;;;18.13;12.23;;;4.20;99.90;;;;;;5093994;28;20047;-78
2022/01/28 04:19:24;;;;;;;16.05;12.55;;;4.10;99.90;;;;;;5065924;28;20102;-78
2022/01/28 04:21:51;;;;;;;12.55;11.45;;;4.10;99.90;;;;;;5093841;28;20036;-78
2022/01/28 04:24:17;;;;;;;16.08;11.15;;;4.20;99.90;;;;;;5094159;28;20032;-78
2022/01/28 04:26:43;;;;;;;14.05;11.52;;;4.20;99.90;;;;;;5093648;28;20032;-79
2022/01/28 04:29:11;;;;;;;16.80;12.07;;;4.20;99.90;;;;;;5094452;28;20032;-78
2022/01/28 04:31:42;;;;;;;14.00;11.32;;;4.20;99.90;;;;;;5094809;28;20039;-78
2022/01/28 04:34:10;;;;;;;11.82;10.63;;;4.20;99.90;;;;;;5094365;28;20399;-78
2022/01/28 04:36:43;;;;;;;16.30;12.27;;;4.20;99.90;;;;;;5075838;28;20040;-78
2022/01/28 04:39:24;;;;;;;11.75;10.55;;;4.20;99.90;;;;;;5094018;28;20411;-78
2022/01/28 04:44:35;;;;;;;21.38;14.13;;;4.00;99.90;;;;;;5075925;28;20036;-77
2022/01/28 04:47:10;;;;;;;17.48;12.52;;;4.00;99.90;;;;;;5075627;28;20047;-77
2022/01/28 04:49:56;;;;;;;21.58;12.35;;;4.00;99.90;;;;;;5094958;28;20035;-77
2022/01/28 04:55:23;;;;;;;13.57;12.25;;;3.90;99.90;;;;;;5093729;28;20036;-77
2022/01/28 05:00:35;;;;;;;14.98;13.43;;;3.90;99.90;;;;;;5094017;28;20032;-76
2022/01/28 05:14:31;;;;;;;17.08;13.35;;;4.10;99.90;;;;;;5075145;28;20055;-77
2022/01/28 05:27:43;;;;;;;16.35;12.65;;;4.10;99.90;;;;;;5090845;28;19908;-77
2022/01/28 05:30:10;;;;;;;14.40;10.68;;;4.10;99.90;;;;;;5075479;28;20040;-77
2022/01/28 05:32:37;;;;;;;14.38;12.27;;;4.10;99.90;;;;;;5093088;28;20028;-77
2022/01/28 05:35:04;;;;;;;15.77;11.90;;;4.10;99.90;;;;;;5092485;28;20032;-75
2022/01/28 05:37:30;;;;;;;12.70;11.50;;;4.20;99.90;;;;;;5091636;28;20036;-76
2022/01/28 05:39:56;;;;;;;13.13;11.77;;;4.20;99.90;;;;;;5092166;28;20035;-76
2022/01/28 05:42:22;;;;;;;14.00;10.85;;;4.30;99.90;;;;;;5085686;28;20035;-76
2022/01/28 05:44:49;;;;;;;12.73;11.48;;;4.30;99.90;;;;;;5092104;28;20036;-77
2022/01/28 05:47:16;;;;;;;11.65;10.38;;;4.40;99.90;;;;;;5074081;28;20047;-78
2022/01/28 05:49:44;;;;;;;14.73;13.18;;;4.30;99.90;;;;;;5093835;28;20032;-87
2022/01/28 05:52:10;;;;;;;15.55;11.93;;;4.30;99.90;;;;;;5093580;28;20032;-88
2022/01/28 05:54:36;;;;;;;13.52;11.60;;;4.40;99.90;;;;;;5096356;28;20028;-86
2022/01/28 05:57:03;;;;;;;11.93;10.82;;;4.40;99.90;;;;;;5092346;28;20389;-86
2022/01/28 05:59:30;;;;;;;13.20;11.90;;;4.40;99.90;;;;;;5093051;28;20035;-84
2022/01/28 06:01:57;;;;;;;16.17;11.25;;;4.50;99.90;;;;;;5057547;28;20040;-85
2022/01/28 06:04:23;;;;;;;19.55;13.13;;;4.50;99.90;;;;;;5092293;28;20032;-86
2022/01/28 06:06:49;;;;;;;16.58;13.25;;;4.30;99.90;;;;;;5092718;28;20040;-85
2022/01/28 06:09:15;;;;;;;16.17;13.00;;;4.40;99.90;;;;;;5074411;28;20047;-85
2022/01/28 06:11:45;;;;;;;15.55;13.02;;;4.40;99.90;;;;;;5092754;28;20067;-85
2022/01/28 06:14:12;;;;;;;14.73;11.38;;;4.40;99.90;;;;;;5095868;28;20032;-85
2022/01/28 06:16:38;;;;;;;18.08;11.68;;;4.40;99.90;;;;;;5093020;28;20039;-84
2022/01/28 06:19:04;;;;;;;14.82;12.90;;;4.40;99.90;;;;;;5092426;28;20028;-85
2022/01/28 06:21:30;;;;;;;12.93;11.63;;;4.50;99.90;;;;;;5093597;28;20036;-86
2022/01/28 06:23:56;;;;;;;13.90;12.20;;;4.50;99.90;;;;;;5088986;28;20032;-86
2022/01/28 06:26:23;;;;;;;18.98;12.27;;;4.40;99.90;;;;;;5092741;28;20047;-86
2022/01/28 06:28:49;;;;;;;16.77;11.95;;;4.50;99.90;;;;;;5057170;28;20047;-85
2022/01/28 06:31:16;;;;;;;20.88;13.18;;;4.50;99.90;;;;;;5095033;28;20039;-86
2022/01/28 06:33:42;;;;;;;24.83;12.45;;;4.50;99.90;;;;;;5101773;28;20024;-86
2022/01/28 06:36:09;;;;;;;17.50;12.52;;;4.40;99.90;;;;;;5078238;28;20036;-88
2022/01/28 06:38:35;;;;;;;15.18;13.20;;;4.50;99.90;;;;;;5103181;28;20028;-87
2022/01/28 06:41:01;;;;;;;17.70;12.57;;;4.50;99.90;;;;;;5098263;28;20417;-87
2022/01/28 06:43:27;;;;;;;23.95;13.45;;;4.50;99.90;;;;;;5094486;28;20047;-88
2022/01/28 06:45:53;;;;;;;26.08;12.82;;;4.50;99.90;;;;;;5092929;28;20036;-85
2022/01/28 06:48:20;;;;;;;13.13;11.43;;;4.50;99.90;;;;;;5093061;28;20036;-85
2022/01/28 06:50:46;;;;;;;14.38;12.88;;;4.50;99.90;;;;;;5093255;28;20138;-84
2022/01/28 06:53:13;;;;;;;13.40;11.98;;;4.40;99.90;;;;;;5091440;28;20033;-84
2022/01/28 06:55:41;;;;;;;28.10;15.05;;;4.30;99.90;;;;;;5092435;28;20035;-82
2022/01/28 06:58:08;;;;;;;16.40;10.52;;;4.40;99.90;;;;;;5092270;28;20052;-83
2022/01/28 07:00:39;;;;;;;17.92;10.52;;;4.40;99.90;;;;;;5092604;28;20032;-83
2022/01/28 07:03:10;;;;;;;23.75;10.27;;;4.40;99.90;;;;;;5091729;28;20102;-84
2022/01/28 07:05:37;;;;;;;14.30;10.63;;;4.40;99.90;;;;;;5098643;28;20039;-82
2022/01/28 07:08:04;;;;;;;14.07;11.60;;;4.40;99.90;;;;;;5073867;28;20047;-84
2022/01/28 07:10:31;;;;;;;16.75;10.55;;;4.40;99.90;;;;;;5073307;28;20044;-83
2022/01/28 07:12:58;;;;;;;11.20;8.63;;;4.40;99.90;;;;;;5091550;28;20027;-83
2022/01/28 07:15:26;;;;;;;14.30;10.85;;;4.40;99.90;;;;;;5091944;28;20028;-86
2022/01/28 07:17:53;;;;;;;13.10;8.85;;;4.40;99.90;;;;;;5073357;28;20047;-85
2022/01/28 07:20:20;;;;;;;17.60;9.32;;;4.60;99.90;;;;;;5092262;28;20426;-85
2022/01/28 07:22:46;;;;;;;14.63;8.65;;;4.70;99.90;;;;;;5093552;28;20035;-84
2022/01/28 07:25:13;;;;;;;15.50;9.43;;;4.70;99.90;;;;;;5097119;28;20058;-85
2022/01/28 07:27:39;;;;;;;10.23;8.98;;;4.60;99.90;;;;;;5096214;28;20043;-84
2022/01/28 07:30:08;;;;;;;10.60;9.23;;;4.60;99.90;;;;;;5095153;28;20028;-84
2022/01/28 07:32:34;;;;;;;9.30;8.27;;;4.60;99.90;;;;;;5095606;28;20028;-84
2022/01/28 07:35:01;;;;;;;10.13;8.02;;;4.70;99.90;;;;;;5094656;28;20035;-84
2022/01/28 07:37:27;;;;;;;9.73;6.30;;;4.70;99.90;;;;;;5095537;28;20046;-83
2022/01/28 07:39:53;;;;;;;10.45;8.23;;;4.60;99.90;;;;;;5094637;28;20139;-84
2022/01/28 07:42:19;;;;;;;12.38;6.88;;;4.50;99.90;;;;;;5096142;28;20388;-84
2022/01/28 07:44:45;;;;;;;9.85;7.20;;;4.60;99.90;;;;;;5096084;28;20455;-85
2022/01/28 07:47:12;;;;;;;14.15;7.95;;;4.70;99.90;;;;;;5095016;28;20040;-86
2022/01/28 07:49:38;;;;;;;15.80;6.00;;;4.60;99.90;;;;;;5078808;28;20051;-86
2022/01/28 07:52:04;;;;;;;12.85;6.65;;;4.80;99.40;;;;;;5094596;28;20043;-84
2022/01/28 07:54:31;;;;;;;10.93;6.47;;;4.80;99.10;;;;;;5078879;28;20028;-84
2022/01/28 07:56:58;;;;;;;14.27;6.30;;;4.90;98.50;;;;;;5081309;28;20508;-83
2022/01/28 07:59:24;;;;;;;6.55;5.10;;;4.90;98.50;;;;;;5074851;28;20036;-83
2022/01/28 08:01:50;;;;;;;17.85;6.15;;;5.00;97.70;;;;;;5074775;28;20035;-84
2022/01/28 08:04:16;;;;;;;10.75;5.78;;;5.00;97.70;;;;;;5071784;28;20021;-83
2022/01/28 08:06:43;;;;;;;8.13;5.30;;;5.00;97.90;;;;;;5074310;28;20028;-84
2022/01/28 08:09:09;;;;;;;13.30;6.47;;;5.00;97.30;;;;;;5074090;28;20389;-84
2022/01/28 08:11:35;;;;;;;11.45;5.57;;;5.00;97.40;;;;;;5085584;28;20055;-84
2022/01/28 08:14:02;;;;;;;9.60;5.05;;;5.00;97.50;;;;;;5094459;28;20028;-83
2022/01/28 08:16:29;;;;;;;11.75;7.28;;;5.00;97.40;;;;;;5094282;28;20444;-83
2022/01/28 08:18:55;;;;;;;11.95;6.40;;;5.10;97.30;;;;;;5074035;28;20051;-84
2022/01/28 08:21:21;;;;;;;14.15;6.35;;;5.10;97.20;;;;;;5074855;28;20399;-82
2022/01/28 08:23:47;;;;;;;11.88;8.40;;;5.10;96.70;;;;;;5074910;28;20037;-84
2022/01/28 08:26:14;;;;;;;12.43;5.40;;;5.20;96.60;;;;;;5073884;28;20319;-83
2022/01/28 08:28:42;;;;;;;13.75;10.68;;;5.20;96.30;;;;;;5074716;28;20051;-83
2022/01/28 08:31:09;;;;;;;8.88;6.18;;;5.20;96.20;;;;;;5073971;28;20028;-83
2022/01/28 08:33:35;;;;;;;8.15;5.68;;;5.20;95.50;;;;;;5073132;28;20037;-83
2022/01/28 08:36:02;;;;;;;9.10;5.20;;;5.30;95.30;;;;;;5083496;28;20024;-83
2022/01/28 08:41:25;;;;;;;6.05;4.68;;;5.40;95.30;;;;;;5070500;28;20040;-83
2022/01/28 08:43:52;;;;;;;8.00;4.97;;;5.40;95.20;;;;;;5094292;28;20050;-82
2022/01/28 08:46:18;;;;;;;9.40;5.03;;;5.40;95.10;;;;;;5094049;28;20112;-83
2022/01/28 08:48:45;;;;;;;10.90;5.95;;;5.40;94.90;;;;;;5094002;28;20354;-83
2022/01/28 08:51:11;;;;;;;9.40;4.05;;;5.40;94.80;;;;;;5087556;28;20067;-83
2022/01/28 08:53:39;;;;;;;7.20;3.78;;;5.40;94.60;;;;;;5091613;28;20039;-84
2022/01/28 08:56:06;;;;;;;7.15;3.78;;;5.40;94.20;;;;;;5072949;28;20493;-84
2022/01/28 08:58:32;;;;;;;6.68;3.88;;;5.40;94.00;;;;;;5113195;28;20040;-83
2022/01/28 09:00:58;;;;;;;11.20;4.60;;;5.50;93.90;;;;;;5113888;28;20035;-84
2022/01/28 09:03:24;;;;;;;5.70;4.57;;;5.50;93.40;;;;;;5113945;28;20461;-81
2022/01/28 09:05:51;;;;;;;6.32;3.67;;;5.40;93.20;;;;;;5098335;28;20028;-81
2022/01/28 09:08:18;;;;;;;6.00;3.58;;;5.40;94.30;;;;;;5093926;28;20028;-81
2022/01/28 09:10:56;;;;;;;7.25;3.45;;;5.40;95.60;;;;;;5089495;28;20024;-81
2022/01/28 09:13:37;;;;;;;8.73;3.72;;;5.40;95.50;;;;;;5055632;28;20461;-80
2022/01/28 09:16:03;;;;;;;;;;;5.30;95.10;;;;;;5073366;28;20037;-81
2022/01/28 09:18:30;;;;;;;7.40;4.93;;;5.30;95.60;;;;;;5072954;28;19920;-80
2022/01/28 09:20:57;;;;;;;6.18;3.15;;;5.30;95.90;;;;;;5059492;28;20024;-82
2022/01/28 09:23:23;;;;;;;11.13;4.30;;;5.30;95.60;;;;;;5092794;28;20020;-83
2022/01/28 09:25:49;;;;;;;4.88;3.92;;;5.40;95.60;;;;;;5093679;28;20039;-83
2022/01/28 09:28:16;;;;;;;10.63;4.43;;;5.50;94.30;;;;;;5093170;28;20040;-83
2022/01/28 09:30:42;;;;;;;5.10;3.13;;;5.50;94.20;;;;;;5093398;28;20376;-80
2022/01/28 09:33:10;;;;;;;6.30;4.18;;;5.60;93.10;;;;;;5092583;28;20024;-82
2022/01/28 09:35:37;;;;;;;7.75;3.92;;;5.60;93.00;;;;;;5093242;28;20043;-81
2022/01/28 09:38:04;;;;;;;8.85;3.55;;;5.70;92.90;;;;;;5097074;28;20036;-82
2022/01/28 09:40:30;;;;;;;7.75;3.88;;;5.80;93.40;;;;;;5093909;28;20027;-83
2022/01/28 09:42:59;;;;;;;7.22;3.53;;;5.90;92.80;;;;;;5075383;28;20040;-83
2022/01/28 09:45:25;;;;;;;9.07;3.92;;;5.90;92.70;;;;;;5092893;28;20035;-81
2022/01/28 09:47:55;;;;;;;4.43;2.60;;;6.00;92.30;;;;;;5092342;28;20062;-83
2022/01/28 09:50:23;;;;;;;4.70;3.28;;;6.00;92.40;;;;;;5074896;28;20389;-83
2022/01/28 09:52:54;;;;;;;6.30;3.10;;;6.10;93.40;;;;;;5086494;28;20027;-82
2022/01/28 09:55:21;;;;;;;7.40;3.33;;;6.00;92.60;;;;;;5079792;28;20036;-83
2022/01/28 09:57:52;;;;;;;9.10;4.35;;;6.00;92.90;;;;;;5072431;28;20052;-81
2022/01/28 10:00:22;;;;;;;9.95;4.82;;;6.00;92.20;;;;;;5071798;28;20295;-81
2022/01/28 10:02:52;;;;;;;8.55;4.20;;;6.10;92.20;;;;;;5087778;28;20032;-82
2022/01/28 10:05:25;;;;;;;5.80;3.15;;;6.10;92.50;;;;;;5092265;28;20032;-81
2022/01/28 10:08:15;;;;;;;4.68;3.00;;;6.20;91.60;;;;;;5075108;28;20031;-82
2022/01/28 10:10:50;;;;;;;8.55;3.30;;;6.30;91.60;;;;;;5071180;28;20032;-80
2022/01/28 10:14:04;;;;;;;6.13;2.58;;;6.50;90.70;;;;;;5071575;28;20099;-80
2022/01/28 10:16:17;;;;;;;5.00;3.03;;;6.60;90.30;;;;;;5054171;28;20036;-80
2022/01/28 10:18:48;;;;;;;8.02;3.65;;;6.90;89.40;;;;;;5092410;28;20040;-79
2022/01/28 10:21:16;;;;;;;6.22;3.58;;;6.80;89.30;;;;;;5091811;28;20040;-79
2022/01/28 10:24:06;;;;;;;5.45;3.05;;;6.80;89.80;;;;;;5074304;28;20032;-79
2022/01/28 10:26:32;;;;;;;6.88;2.65;;;6.70;88.70;;;;;;5074992;28;20051;-80
2022/01/28 10:28:59;;;;;;;9.25;2.97;;;6.80;87.70;;;;;;5076260;28;20036;-79
2022/01/28 10:31:41;;;;;;;7.55;3.17;;;6.70;88.30;;;;;;5092382;28;20028;-79
2022/01/28 10:34:21;;;;;;;14.18;3.50;;;6.70;87.70;;;;;;5073895;28;20032;-80
2022/01/28 10:36:49;;;;;;;7.68;2.85;;;6.70;86.90;;;;;;5092406;28;20385;-79
2022/01/28 10:39:19;;;;;;;3.95;2.72;;;6.70;86.50;;;;;;5091511;28;20377;-81
2022/01/28 10:42:04;;;;;;;15.98;3.08;;;6.70;86.80;;;;;;5092634;28;20036;-80
2022/01/28 10:44:31;;;;;;;6.35;3.25;;;6.80;86.50;;;;;;5092398;28;20028;-79
2022/01/28 10:47:06;;;;;;;5.05;2.53;;;6.90;85.40;;;;;;5092376;28;20031;-79
2022/01/28 10:49:35;;;;;;;4.10;2.15;;;7.00;84.50;;;;;;5092982;28;20357;-80
2022/01/28 10:52:11;;;;;;;7.75;2.33;;;7.00;83.10;;;;;;5083805;28;20124;-81
2022/01/28 10:54:38;;;;;;;8.77;2.33;;;7.10;83.00;;;;;;5073295;28;20040;-79
2022/01/28 10:57:08;;;;;;;7.90;2.78;;;7.20;83.10;;;;;;5072706;28;20047;-80
2022/01/28 10:59:40;;;;;;;10.55;2.65;;;7.30;81.20;;;;;;5079151;28;20051;-81
2022/01/28 11:02:07;;;;;;;6.57;2.90;;;7.40;82.30;;;;;;5079609;28;20029;-80
2022/01/28 11:04:34;;;;;;;6.35;3.03;;;7.50;81.80;;;;;;5058825;28;20039;-81
2022/01/28 11:07:02;;;;;;;7.47;2.78;;;7.70;82.10;;;;;;5075091;28;20036;-81
2022/01/28 11:09:30;;;;;;;10.57;3.38;;;7.80;82.40;;;;;;5093981;28;20032;-80
2022/01/28 11:11:56;;;;;;;6.35;3.15;;;8.00;80.30;;;;;;5095390;28;20032;-82
2022/01/28 11:14:25;;;;;;;11.80;3.60;;;8.10;81.00;;;;;;5077009;28;20047;-82
2022/01/28 11:16:51;;;;;;;5.13;3.42;;;8.20;80.40;;;;;;5077762;28;20044;-82
2022/01/28 11:19:21;;;;;;;7.60;3.15;;;8.40;79.30;;;;;;5098675;28;20044;-81
2022/01/28 11:22:11;;;;;;;3.05;2.03;;;8.10;80.00;;;;;;5096149;28;20043;-82
2022/01/28 11:25:02;;;;;;;5.82;3.17;;;7.60;80.00;;;;;;5077794;28;20392;-82
2022/01/28 11:27:31;;;;;;;5.13;2.45;;;7.60;82.00;;;;;;5096128;28;20032;-81
2022/01/28 11:30:22;;;;;;;2.00;1.58;;;7.60;81.40;;;;;;5095508;28;20039;-82
2022/01/28 11:33:02;;;;;;;3.28;1.30;;;7.90;80.90;;;;;;5077372;28;20051;-82
2022/01/28 11:35:52;;;;;;;6.38;3.13;;;7.70;78.60;;;;;;5095435;28;20028;-84
2022/01/28 11:38:27;;;;;;;6.05;2.47;;;7.40;79.70;;;;;;5085924;28;20044;-83
2022/01/28 11:41:14;;;;;;;6.05;3.13;;;7.40;79.70;;;;;;5077423;28;20032;-83
2022/01/28 11:43:46;;;;;;;6.90;2.72;;;7.60;80.20;;;;;;5095635;28;20047;-84
2022/01/28 11:46:16;;;;;;;5.05;3.17;;;7.90;77.80;;;;;;5075148;28;20031;-83
2022/01/28 11:49:04;;;;;;;5.50;2.20;;;7.90;75.30;;;;;;5076806;28;20024;-81
2022/01/28 11:51:38;;;;;;;6.43;2.30;;;7.80;75.10;;;;;;5073133;28;20041;-80
2022/01/28 11:54:09;;;;;;;9.32;2.90;;;7.90;74.50;;;;;;5093115;28;20028;-81
2022/01/28 11:56:57;;;;;;;4.13;2.17;;;7.80;75.10;;;;;;5075575;28;20040;-82
2022/01/28 11:59:29;;;;;;;6.93;2.70;;;7.90;76.00;;;;;;5089792;28;20028;-82
2022/01/28 12:01:55;;;;;;;4.30;2.17;;;8.10;74.50;;;;;;5094920;28;20044;-83
2022/01/28 12:04:25;;;;;;;5.60;2.33;;;8.10;75.20;;;;;;5075896;28;20263;-84
2022/01/28 12:07:07;;;;;;;5.28;2.85;;;8.10;74.30;;;;;;5094993;28;20381;-84
2022/01/28 12:09:35;;;;;;;5.78;2.72;;;8.00;74.80;;;;;;5098724;28;20038;-83
2022/01/28 12:12:03;;;;;;;4.32;2.60;;;7.80;74.70;;;;;;5075197;28;20043;-84
2022/01/28 12:14:48;;;;;;;8.93;2.95;;;7.80;75.80;;;;;;5094830;28;20354;-82
2022/01/28 12:17:30;;;;;;;6.90;3.80;;;7.70;75.50;;;;;;5094612;28;20028;-85
2022/01/28 12:20:19;;;;;;;7.47;2.83;;;7.60;75.50;;;;;;5094826;28;20047;-78
2022/01/28 12:23:25;;;;;;;7.10;2.83;;;7.70;75.60;;;;;;5077672;28;20500;-84
2022/01/28 12:25:55;;;;;;;8.00;4.07;;;7.60;75.60;;;;;;5075548;28;20028;-83
2022/01/28 12:28:32;;;;;;;7.30;3.28;;;7.50;76.60;;;;;;5092689;28;20047;-83
2022/01/28 12:31:12;;;;;;;6.97;3.42;;;7.40;76.00;;;;;;5075688;28;20047;-82
2022/01/28 12:33:41;;;;;;;8.88;3.15;;;7.40;76.50;;;;;;5093894;28;20036;-81
2022/01/28 12:36:08;;;;;;;6.93;3.03;;;7.30;75.20;;;;;;5057041;28;20036;-79
2022/01/28 12:38:42;;;;;;;5.95;2.35;;;7.40;75.50;;;;;;5087457;28;20041;-81
2022/01/28 12:41:10;;;;;;;4.28;3.17;;;7.40;75.90;;;;;;5091552;28;20044;-80
2022/01/28 12:43:38;;;;;;;6.82;2.58;;;7.50;75.80;;;;;;5076547;28;20047;-84
2022/01/28 12:46:06;;;;;;;6.70;3.20;;;7.60;76.10;;;;;;5094376;28;20385;-84
2022/01/28 12:48:33;;;;;;;5.25;3.20;;;7.70;75.30;;;;;;5076849;28;20024;-86
2022/01/28 12:51:01;;;;;;;10.27;3.78;;;7.70;74.70;;;;;;5095030;28;20035;-85
2022/01/28 12:53:35;;;;;;;6.32;2.95;;;7.80;75.60;;;;;;5094612;28;20458;-87
2022/01/28 12:56:04;;;;;;;5.60;2.78;;;7.80;75.90;;;;;;5058682;28;20051;-83
2022/01/28 12:58:50;;;;;;;12.20;3.78;;;7.70;75.10;;;;;;5075815;28;20047;-84
2022/01/28 13:01:18;;;;;;;8.30;4.30;;;7.60;76.00;;;;;;5097170;28;20036;-83
2022/01/28 13:03:54;;;;;;;6.05;3.40;;;7.60;77.40;;;;;;5094741;28;20028;-86
2022/01/28 13:09:18;;;;;;;5.50;2.70;;;7.50;77.20;;;;;;5094491;28;20035;-85
2022/01/28 13:11:56;;;;;;;3.25;2.15;;;7.50;77.10;;;;;;5095576;28;20036;-82
2022/01/28 13:14:32;;;;;;;8.05;2.75;;;7.60;76.30;;;;;;5076138;28;20040;-83
2022/01/28 13:17:00;;;;;;;5.35;3.05;;;7.60;76.40;;;;;;5096268;28;20032;-84
2022/01/28 13:19:27;;;;;;;5.07;3.00;;;7.60;75.30;;;;;;5061180;28;20271;-85
2022/01/28 13:21:55;;;;;;;5.85;2.65;;;7.70;75.70;;;;;;5075997;28;20049;-85
2022/01/28 13:24:23;;;;;;;5.22;2.05;;;7.70;73.30;;;;;;5093102;28;20036;-83
2022/01/28 13:27:04;;;;;;;4.25;2.47;;;7.60;74.30;;;;;;5093828;28;20028;-82
2022/01/28 13:29:46;;;;;;;33.08;26.00;;;7.60;74.20;;;;;;5074978;28;20039;-82
2022/01/28 13:32:32;;;;;;;5.70;2.88;;;7.60;74.10;;;;;;5092796;28;20477;-83
2022/01/28 13:35:00;;;;;;;6.40;3.80;;;7.50;74.50;;;;;;5093897;28;20031;-84
2022/01/28 13:37:47;;;;;;;11.05;8.02;;;7.50;75.40;;;;;;5075273;28;20039;-84
2022/01/28 13:40:28;;;;;;;14.85;3.25;;;7.50;76.40;;;;;;5074666;28;20051;-83
2022/01/28 13:43:11;;;;;;;5.80;3.10;;;7.50;76.30;;;;;;5093722;28;20028;-84
2022/01/28 13:45:46;;;;;;;5.78;2.22;;;7.50;76.50;;;;;;5093852;28;20043;-83
2022/01/28 13:48:19;;;;;;;5.32;2.47;;;7.50;75.00;;;;;;5092839;28;20039;-82
2022/01/28 13:50:51;;;;;;;6.05;2.10;;;7.50;74.90;;;;;;5093479;28;20043;-84
2022/01/28 13:55:51;;;;;;;4.53;2.00;;;7.80;72.90;;;;;;5093486;28;20032;-84
2022/01/28 13:58:18;;;;;;;4.28;1.00;;;7.90;70.30;;;;;;5067111;28;20482;-85
2022/01/28 14:00:55;;;;;;;3.92;1.35;;;7.90;68.80;;;;;;5067997;28;20049;-85
2022/01/28 14:03:25;;;;;;;4.18;1.17;;;7.90;68.50;;;;;;5067049;28;20045;-83
2022/01/28 14:06:00;;;;;;;9.05;1.60;;;7.80;67.80;;;;;;5053453;28;20033;-84
2022/01/28 14:08:51;;;;;;;4.50;1.40;;;7.80;68.30;;;;;;5052119;28;20037;-84
2022/01/28 14:11:39;;;;;;;2.35;1.13;;;7.70;68.40;;;;;;5052770;28;20067;-85
2022/01/28 14:14:29;;;;;;;4.85;1.73;;;7.80;68.70;;;;;;5052358;28;20056;-85
2022/01/28 14:17:07;;;;;;;4.50;1.63;;;7.70;69.10;;;;;;5051653;28;20417;-85
2022/01/28 14:19:39;;;;;;;9.52;1.90;;;7.60;69.80;;;;;;5052497;28;20875;-85
2022/01/28 14:22:08;;;;;;;6.53;1.45;;;7.50;71.00;;;;;;5068065;28;20045;-85
2022/01/28 14:24:39;;;;;;;3.67;1.67;;;7.50;70.50;;;;;;5051101;28;20044;-87
2022/01/28 14:27:23;;;;;;;9.65;2.20;;;7.50;69.90;;;;;;5051678;28;20029;-85
2022/01/28 14:29:52;;;;;;;9.23;1.10;;;7.40;69.90;;;;;;5052800;28;20041;-85